createdAt,value
2022-12-02T00:02:31.036Z,101490.98
2022-12-02T00:05:13.005Z,101486.27
2022-12-02T00:07:45.731Z,101491.63
2022-12-02T00:10:26.536Z,101494.69
2022-12-02T00:13:03.001Z,101489.09
2022-12-02T00:15:42.203Z,101485.70
2022-12-02T00:18:16.661Z,101485.30
2022-12-02T00:20:49.333Z,101486.76
2022-12-02T00:23:23.115Z,101481.29
2022-12-02T00:25:56.180Z,101485.70
2022-12-02T00:28:28.444Z,101486.81
2022-12-02T00:31:01.365Z,101482.55
2022-12-02T00:33:33.658Z,101485.52
2022-12-02T00:36:06.556Z,101484.82
2022-12-02T00:38:38.635Z,101489.92
2022-12-02T00:41:10.880Z,101484.84
2022-12-02T00:44:00.737Z,101482.33
2022-12-02T00:46:33.035Z,101484.43
2022-12-02T00:49:07.862Z,101487.88
2022-12-02T00:51:41.441Z,101484.40
2022-12-02T00:54:14.734Z,101484.70
2022-12-02T00:56:47.005Z,101484.19
2022-12-02T00:59:19.352Z,101482.75
2022-12-02T01:01:52.077Z,101479.00
2022-12-02T01:04:24.254Z,101477.39
2022-12-02T01:06:56.785Z,101479.40
2022-12-02T01:09:28.947Z,101482.13
2022-12-02T01:12:01.242Z,101483.02
2022-12-02T01:14:33.371Z,101481.57
2022-12-02T01:17:05.938Z,101487.66
2022-12-02T01:19:38.055Z,101489.86
2022-12-02T01:22:10.225Z,101488.02
2022-12-02T01:24:42.266Z,101490.96
2022-12-02T01:27:14.463Z,101489.19
2022-12-02T01:29:46.549Z,101489.27
2022-12-02T01:32:19.868Z,101491.67
2022-12-02T01:34:52.504Z,101488.65
2022-12-02T01:37:25.180Z,101488.75
2022-12-02T01:39:57.397Z,101488.27
2022-12-02T01:42:30.283Z,101490.80
2022-12-02T01:45:03.015Z,101486.02
2022-12-02T01:47:37.026Z,101482.80
2022-12-02T01:50:12.471Z,101479.86
2022-12-02T01:52:45.254Z,101483.34
2022-12-02T01:55:20.600Z,101480.10
2022-12-02T01:57:53.430Z,101477.78
2022-12-02T02:00:27.156Z,101476.77
2022-12-02T02:02:59.302Z,101473.58
2022-12-02T02:05:35.901Z,101477.61
2022-12-02T02:08:12.682Z,101476.84
2022-12-02T02:10:47.223Z,101477.96
2022-12-02T02:13:20.472Z,101470.14
2022-12-02T02:15:53.226Z,101468.56
2022-12-02T02:18:25.361Z,101470.23
2022-12-02T02:21:00.290Z,101467.98
2022-12-02T02:23:32.520Z,101466.34
2022-12-02T02:26:05.992Z,101470.80
2022-12-02T02:28:40.286Z,101466.23
2022-12-02T02:31:12.561Z,101459.76
2022-12-02T02:33:49.697Z,101460.54
2022-12-02T02:36:22.447Z,101459.56
2022-12-02T02:38:55.181Z,101463.39
2022-12-02T02:41:28.041Z,101460.52
2022-12-02T02:44:00.234Z,101461.88
2022-12-02T02:46:32.811Z,101462.02
2022-12-02T02:49:05.236Z,101460.10
2022-12-02T02:51:37.788Z,101465.60
2022-12-02T02:54:10.213Z,101465.40
2022-12-02T02:56:42.609Z,101465.30
2022-12-02T02:59:17.263Z,101465.15
2022-12-02T03:01:53.333Z,101461.92
2022-12-02T03:04:27.870Z,101454.92
2022-12-02T03:07:00.247Z,101454.98
2022-12-02T03:09:33.128Z,101453.05
2022-12-02T03:12:06.400Z,101449.91
2022-12-02T03:14:39.103Z,101446.61
2022-12-02T03:17:11.292Z,101446.02
2022-12-02T03:19:44.207Z,101445.59
2022-12-02T03:22:16.480Z,101440.63
2022-12-02T03:24:49.147Z,101441.27
2022-12-02T03:27:21.634Z,101441.54
2022-12-02T03:29:54.288Z,101442.96
2022-12-02T03:32:27.277Z,101445.89
2022-12-02T03:34:59.650Z,101445.77
2022-12-02T03:37:32.099Z,101445.04
2022-12-02T03:40:04.896Z,101445.59
2022-12-02T03:42:37.613Z,101448.45
2022-12-02T03:45:11.598Z,101449.29
2022-12-02T03:47:44.102Z,101451.04
2022-12-02T03:50:16.550Z,101445.64
2022-12-02T03:52:49.255Z,101443.70
2022-12-02T03:55:22.225Z,101443.96
2022-12-02T03:57:54.564Z,101442.37
2022-12-02T04:00:26.703Z,101445.02
2022-12-02T04:02:59.287Z,101440.63
2022-12-02T04:05:32.118Z,101440.61
2022-12-02T04:08:04.301Z,101444.45
2022-12-02T04:10:36.507Z,101445.37
2022-12-02T04:13:08.650Z,101447.42
2022-12-02T04:15:40.930Z,101441.97
2022-12-02T04:18:13.548Z,101439.39
2022-12-02T04:20:45.845Z,101439.74
2022-12-02T04:23:18.038Z,101438.60
2022-12-02T04:25:50.181Z,101441.36
2022-12-02T04:28:23.117Z,101443.08
2022-12-02T04:30:55.395Z,101444.88
2022-12-02T04:33:27.547Z,101442.35
2022-12-02T04:35:59.787Z,101440.86
2022-12-02T04:38:31.969Z,101439.45
2022-12-02T04:41:04.265Z,101438.15
2022-12-02T04:43:36.382Z,101434.89
2022-12-02T04:46:08.744Z,101435.03
2022-12-02T04:48:41.206Z,101440.48
2022-12-02T04:51:13.349Z,101442.73
2022-12-02T04:53:45.465Z,101442.86
2022-12-02T04:56:17.582Z,101444.33
2022-12-02T04:58:49.673Z,101446.11
2022-12-02T05:01:21.868Z,101448.98
2022-12-02T05:03:54.119Z,101449.56
2022-12-02T05:06:26.393Z,101450.41
2022-12-02T05:08:58.474Z,101450.00
2022-12-02T05:11:35.975Z,101448.34
2022-12-02T05:14:08.621Z,101448.38
2022-12-02T05:16:40.818Z,101451.36
2022-12-02T05:19:13.066Z,101455.80
2022-12-02T05:21:45.229Z,101452.58
2022-12-02T05:24:17.348Z,101452.50
2022-12-02T05:26:49.490Z,101453.20
2022-12-02T05:29:21.656Z,101452.60
2022-12-02T05:31:53.847Z,101449.77
2022-12-02T05:34:26.131Z,101449.79
2022-12-02T05:36:58.238Z,101447.98
2022-12-02T05:39:30.380Z,101451.90
2022-12-02T05:42:07.064Z,101457.09
2022-12-02T05:44:40.199Z,101460.31
2022-12-02T05:47:14.949Z,101458.67
2022-12-02T05:49:48.321Z,101455.80
2022-12-02T05:52:25.969Z,101453.45
2022-12-02T05:55:01.183Z,101455.16
2022-12-02T05:57:32.582Z,101455.65
2022-12-02T06:00:18.815Z,101462.50
2022-12-02T06:02:53.567Z,101465.63
2022-12-02T06:05:27.826Z,101470.66
2022-12-02T06:08:03.179Z,101468.79
2022-12-02T06:10:38.718Z,101467.98
2022-12-02T06:13:19.565Z,101468.12
2022-12-02T06:15:52.781Z,101466.86
2022-12-02T06:18:29.404Z,101465.84
2022-12-02T06:21:04.904Z,101465.21
2022-12-02T06:23:37.837Z,101469.77
2022-12-02T06:26:10.056Z,101471.14
2022-12-02T06:28:44.973Z,101475.13
2022-12-02T06:31:20.191Z,101478.33
2022-12-02T06:33:51.748Z,101481.16
2022-12-02T06:36:28.175Z,101482.12
2022-12-02T06:39:03.620Z,101486.84
2022-12-02T06:41:39.294Z,101487.14
2022-12-02T06:44:35.171Z,101486.92
2022-12-02T06:47:47.447Z,101487.33
2022-12-02T06:50:37.526Z,101492.90
2022-12-02T06:53:25.557Z,101493.70
2022-12-02T06:56:02.588Z,101494.36
2022-12-02T06:58:41.346Z,101493.39
2022-12-02T07:01:23.802Z,101491.91
2022-12-02T07:04:23.433Z,101495.81
2022-12-02T07:06:59.798Z,101494.66
2022-12-02T07:09:39.042Z,101490.09
2022-12-02T07:12:17.448Z,101494.65
2022-12-02T07:14:51.756Z,101495.11
2022-12-02T07:17:27.198Z,101495.42
2022-12-02T07:20:02.733Z,101499.11
2022-12-02T07:22:37.975Z,101499.27
2022-12-02T07:25:31.390Z,101497.54
2022-12-02T07:28:11.263Z,101499.36
2022-12-02T07:30:44.622Z,101504.47
2022-12-02T07:33:16.747Z,101504.08
2022-12-02T07:35:49.179Z,101501.92
2022-12-02T07:38:42.864Z,101498.69
2022-12-02T07:41:13.815Z,101499.39
2022-12-02T07:43:45.958Z,101504.33
2022-12-02T07:46:18.453Z,101502.08
2022-12-02T07:48:54.343Z,101504.24
2022-12-02T07:51:29.222Z,101504.58
2022-12-02T07:54:01.362Z,101507.13
2022-12-02T07:56:33.403Z,101504.19
2022-12-02T07:59:13.518Z,101506.35
2022-12-02T08:01:46.626Z,101509.77
2022-12-02T08:04:18.889Z,101506.65
2022-12-02T08:06:50.937Z,101502.93
2022-12-02T08:09:23.050Z,101500.11
2022-12-02T08:11:55.448Z,101500.42
2022-12-02T08:14:27.720Z,101503.35
2022-12-02T08:16:59.941Z,101500.10
2022-12-02T08:19:32.466Z,101502.58
2022-12-02T08:22:04.608Z,101500.67
2022-12-02T08:24:37.059Z,101498.66
2022-12-02T08:27:09.200Z,101503.19
2022-12-02T08:29:41.270Z,101506.26
2022-12-02T08:32:13.461Z,101508.33
2022-12-02T08:34:45.833Z,101507.27
2022-12-02T08:37:18.358Z,101502.99
2022-12-02T08:39:50.505Z,101502.84
2022-12-02T08:42:22.567Z,101505.08
2022-12-02T08:44:54.736Z,101508.34
2022-12-02T08:47:26.836Z,101507.67
2022-12-02T08:49:58.945Z,101508.73
2022-12-02T08:52:31.503Z,101512.05
2022-12-02T08:55:03.872Z,101515.31
2022-12-02T08:57:35.989Z,101519.61
2022-12-02T09:00:11.464Z,101520.87
2022-12-02T09:02:43.653Z,101520.17
2022-12-02T09:05:16.080Z,101517.73
2022-12-02T09:07:48.260Z,101515.13
2022-12-02T09:10:20.472Z,101515.18
2022-12-02T09:12:53.931Z,101512.17
2022-12-02T09:15:26.310Z,101510.95
2022-12-02T09:17:58.400Z,101508.77
2022-12-02T09:20:30.492Z,101505.86
2022-12-02T09:23:02.791Z,101505.07
2022-12-02T09:25:34.905Z,101506.18
2022-12-02T09:28:07.535Z,101504.13
2022-12-02T09:30:40.188Z,101505.96
2022-12-02T09:33:12.232Z,101505.60
2022-12-02T09:35:44.401Z,101505.05
2022-12-02T09:38:16.548Z,101506.95
2022-12-02T09:40:48.793Z,101509.37
2022-12-02T09:43:21.491Z,101511.84
2022-12-02T09:45:53.591Z,101510.47
2022-12-02T09:48:26.652Z,101512.10
2022-12-02T09:51:00.812Z,101512.18
2022-12-02T09:53:37.692Z,101509.84
2022-12-02T09:56:15.031Z,101511.13
2022-12-02T09:58:48.888Z,101511.56
2022-12-02T10:01:21.368Z,101509.05
2022-12-02T10:03:54.174Z,101505.70
2022-12-02T10:06:29.897Z,101503.34
2022-12-02T10:09:02.760Z,101499.95
2022-12-02T10:11:35.436Z,101495.70
2022-12-02T10:14:07.529Z,101494.14
2022-12-02T10:16:40.679Z,101492.70
2022-12-02T10:19:17.590Z,101493.52
2022-12-02T10:21:55.394Z,101492.94
2022-12-02T10:24:40.369Z,101488.49
2022-12-02T10:27:26.540Z,101488.12
2022-12-02T10:30:18.369Z,101484.58
2022-12-02T10:33:02.571Z,101480.88
2022-12-02T10:35:47.000Z,101476.58
2022-12-02T10:38:41.442Z,101473.72
2022-12-02T10:41:20.350Z,101475.30
2022-12-02T10:44:13.814Z,101476.09
2022-12-02T10:46:46.714Z,101473.38
2022-12-02T10:49:34.830Z,101472.75
2022-12-02T10:52:11.773Z,101471.52
2022-12-02T10:54:51.308Z,101471.95
2022-12-02T10:57:27.907Z,101466.00
2022-12-02T11:00:05.103Z,101464.48
2022-12-02T11:02:42.725Z,101465.27
2022-12-02T11:05:18.823Z,101463.29
2022-12-02T11:08:03.297Z,101461.98
2022-12-02T11:10:38.833Z,101465.85
2022-12-02T11:13:48.375Z,101466.39
2022-12-02T11:16:53.533Z,101464.01
2022-12-02T11:19:47.605Z,101462.83
2022-12-02T11:23:15.756Z,101459.38
2022-12-02T11:26:11.036Z,101459.61
2022-12-02T11:29:18.610Z,101460.73
2022-12-02T11:32:19.581Z,101462.04
2022-12-02T11:35:16.289Z,101464.00
2022-12-02T11:37:47.589Z,101465.05
2022-12-02T11:40:59.982Z,101467.95
2022-12-02T11:43:55.805Z,101461.36
2022-12-02T11:46:42.693Z,101457.41
2022-12-02T11:49:33.499Z,101463.27
2022-12-02T11:52:18.926Z,101466.86
2022-12-02T11:54:56.872Z,101468.02
2022-12-02T11:57:32.555Z,101468.25
2022-12-02T12:00:05.901Z,101461.23
2022-12-02T12:02:44.314Z,101461.33
2022-12-02T12:05:16.771Z,101463.25
2022-12-02T12:07:50.309Z,101461.66
2022-12-02T12:10:32.394Z,101457.76
2022-12-02T12:13:19.384Z,101459.96
2022-12-02T12:15:56.852Z,101456.58
2022-12-02T12:18:47.148Z,101452.66
2022-12-02T12:21:42.504Z,101448.70
2022-12-02T12:24:33.415Z,101448.27
2022-12-02T12:27:33.810Z,101445.73
2022-12-02T12:30:07.692Z,101446.61
2022-12-02T12:32:39.794Z,101442.75
2022-12-02T12:35:12.603Z,101444.73
2022-12-02T12:37:44.799Z,101446.27
2022-12-02T12:40:17.629Z,101448.23
2022-12-02T12:42:49.722Z,101451.00
2022-12-02T12:45:21.892Z,101449.80
2022-12-02T12:47:53.956Z,101451.34
2022-12-02T12:50:30.054Z,101449.27
2022-12-02T12:53:02.544Z,101452.34
2022-12-02T12:55:34.685Z,101458.52
2022-12-02T12:58:06.980Z,101457.89
2022-12-02T13:00:39.125Z,101461.70
2022-12-02T13:03:11.375Z,101457.33
2022-12-02T13:05:43.639Z,101456.48
2022-12-02T13:08:16.107Z,101462.25
2022-12-02T13:10:48.640Z,101462.71
2022-12-02T13:13:20.836Z,101459.69
2022-12-02T13:15:52.955Z,101460.04
2022-12-02T13:18:25.196Z,101460.95
2022-12-02T13:20:57.287Z,101462.69
2022-12-02T13:23:29.686Z,101459.61
2022-12-02T13:26:01.777Z,101459.07
2022-12-02T13:28:33.876Z,101456.88
2022-12-02T13:31:06.024Z,101457.63
2022-12-02T13:33:38.206Z,101455.75
2022-12-02T13:36:11.426Z,101455.30
2022-12-02T13:38:43.590Z,101454.70
2022-12-02T13:41:15.683Z,101457.95
2022-12-02T13:43:47.723Z,101455.83
2022-12-02T13:46:20.124Z,101455.89
2022-12-02T13:48:52.240Z,101456.45
2022-12-02T13:51:24.303Z,101458.02
2022-12-02T13:53:59.243Z,101461.20
2022-12-02T13:56:30.633Z,101462.37
2022-12-02T13:59:02.831Z,101460.95
2022-12-02T14:01:35.031Z,101456.52
2022-12-02T14:04:07.735Z,101456.54
2022-12-02T14:06:39.925Z,101460.84
2022-12-02T14:09:12.016Z,101454.69
2022-12-02T14:11:44.442Z,101456.04
2022-12-02T14:14:16.607Z,101457.75
2022-12-02T14:16:48.826Z,101459.71
2022-12-02T14:19:21.124Z,101461.72
2022-12-02T14:21:53.471Z,101465.23
2022-12-02T14:24:25.573Z,101470.44
2022-12-02T14:26:57.961Z,101470.66
2022-12-02T14:29:30.132Z,101469.89
2022-12-02T14:32:02.733Z,101471.21
2022-12-02T14:34:34.926Z,101477.04
2022-12-02T14:37:12.973Z,101475.45
2022-12-02T14:39:46.853Z,101473.84
2022-12-02T14:42:19.393Z,101477.13
2022-12-02T14:44:52.327Z,101480.23
2022-12-02T14:47:24.985Z,101483.75
2022-12-02T14:49:57.174Z,101484.22
2022-12-02T14:52:29.321Z,101487.43
2022-12-02T14:55:01.592Z,101489.50
2022-12-02T14:57:33.731Z,101489.20
2022-12-02T15:00:09.481Z,101490.63
2022-12-02T15:02:41.779Z,101486.67
2022-12-02T15:05:18.794Z,101484.24
2022-12-02T15:07:51.185Z,101481.58
2022-12-02T15:10:23.379Z,101482.36
2022-12-02T15:12:55.522Z,101486.06
2022-12-02T15:15:38.230Z,101482.63
2022-12-02T15:18:11.767Z,101482.08
2022-12-02T15:20:43.879Z,101483.67
2022-12-02T15:23:15.997Z,101484.46
2022-12-02T15:25:48.397Z,101484.02
2022-12-02T15:28:20.513Z,101487.48
2022-12-02T15:30:52.629Z,101483.70
2022-12-02T15:33:25.029Z,101481.06
2022-12-02T15:35:57.198Z,101481.31
2022-12-02T15:38:29.894Z,101484.95
2022-12-02T15:41:02.787Z,101484.34
2022-12-02T15:43:34.854Z,101483.83
2022-12-02T15:46:07.252Z,101486.65
2022-12-02T15:48:39.327Z,101485.89
2022-12-02T15:51:11.384Z,101486.95
2022-12-02T15:53:45.880Z,101488.29
2022-12-02T15:56:18.536Z,101491.80
2022-12-02T15:58:50.877Z,101493.55
2022-12-02T16:01:23.117Z,101492.75
2022-12-02T16:03:55.349Z,101491.23
2022-12-02T16:06:27.644Z,101495.94
2022-12-02T16:08:59.772Z,101489.32
2022-12-02T16:11:31.978Z,101489.34
2022-12-02T16:14:04.429Z,101488.09
2022-12-02T16:16:36.647Z,101489.24
2022-12-02T16:19:08.767Z,101489.09
2022-12-02T16:21:40.860Z,101493.92
2022-12-02T16:24:13.052Z,101495.92
2022-12-02T16:26:45.169Z,101498.09
2022-12-02T16:29:17.314Z,101496.70
2022-12-02T16:31:49.628Z,101497.80
2022-12-02T16:34:21.820Z,101497.67
2022-12-02T16:36:54.009Z,101500.98
2022-12-02T16:39:26.169Z,101499.45
2022-12-02T16:41:58.305Z,101503.84
2022-12-02T16:44:30.806Z,101503.55
2022-12-02T16:47:03.204Z,101505.90
2022-12-02T16:49:35.398Z,101505.24
2022-12-02T16:52:07.951Z,101507.17
2022-12-02T16:54:40.042Z,101507.95
2022-12-02T16:57:12.261Z,101508.16
2022-12-02T16:59:45.069Z,101507.75
2022-12-02T17:02:17.274Z,101514.25
2022-12-02T17:04:49.660Z,101514.98
2022-12-02T17:07:21.988Z,101514.37
2022-12-02T17:09:54.383Z,101514.42
2022-12-02T17:12:26.505Z,101509.40
2022-12-02T17:14:58.883Z,101505.86
2022-12-02T17:17:45.326Z,101507.91
2022-12-02T17:20:20.083Z,101506.05
2022-12-02T17:22:52.249Z,101504.69
2022-12-02T17:25:25.925Z,101506.84
2022-12-02T17:27:58.197Z,101506.20
2022-12-02T17:30:30.343Z,101503.65
2022-12-02T17:33:02.485Z,101505.53
2022-12-02T17:35:34.599Z,101506.64
2022-12-02T17:38:06.792Z,101507.88
2022-12-02T17:40:38.885Z,101508.95
2022-12-02T17:43:10.979Z,101505.35
2022-12-02T17:45:43.181Z,101508.92
2022-12-02T17:48:15.416Z,101514.40
2022-12-02T17:50:48.121Z,101511.98
2022-12-02T17:53:20.238Z,101513.58
2022-12-02T17:55:52.309Z,101505.59
2022-12-02T17:58:24.933Z,101510.51
2022-12-02T18:00:57.018Z,101506.75
2022-12-02T18:03:29.269Z,101508.32
2022-12-02T18:06:01.389Z,101510.30
2022-12-02T18:08:33.586Z,101514.13
2022-12-02T18:11:06.183Z,101514.32
2022-12-02T18:13:39.273Z,101515.80
2022-12-02T18:16:11.671Z,101520.13
2022-12-02T18:18:43.841Z,101520.02
2022-12-02T18:21:16.008Z,101516.13
2022-12-02T18:23:48.203Z,101514.91
2022-12-02T18:26:20.320Z,101520.98
2022-12-02T18:28:52.477Z,101524.33
2022-12-02T18:31:24.683Z,101522.86
2022-12-02T18:33:56.849Z,101521.21
2022-12-02T18:36:29.274Z,101522.65
2022-12-02T18:39:01.416Z,101521.61
2022-12-02T18:41:33.635Z,101520.04
2022-12-02T18:44:06.239Z,101521.11
2022-12-02T18:46:38.355Z,101516.91
2022-12-02T18:49:10.452Z,101516.36
2022-12-02T18:51:42.871Z,101513.65
2022-12-02T18:54:15.347Z,101508.09
2022-12-02T18:56:47.825Z,101507.59
2022-12-02T18:59:19.915Z,101507.25
2022-12-02T19:01:52.099Z,101505.84
2022-12-02T19:04:24.608Z,101501.43
2022-12-02T19:06:56.706Z,101505.54
2022-12-02T19:09:28.816Z,101509.42
2022-12-02T19:12:00.934Z,101510.84
2022-12-02T19:14:33.102Z,101509.92
2022-12-02T19:17:05.269Z,101508.07
2022-12-02T19:19:37.363Z,101509.64
2022-12-02T19:22:09.683Z,101510.58
2022-12-02T19:24:41.903Z,101510.35
2022-12-02T19:27:34.431Z,101505.52
2022-12-02T19:30:07.766Z,101506.36
2022-12-02T19:32:39.887Z,101507.42
2022-12-02T19:35:12.257Z,101508.48
2022-12-02T19:37:44.429Z,101509.80
2022-12-02T19:40:17.236Z,101510.81
2022-12-02T19:42:49.327Z,101511.22
2022-12-02T19:45:21.904Z,101510.50
2022-12-02T19:47:54.130Z,101510.39
2022-12-02T19:50:26.318Z,101512.58
2022-12-02T19:52:58.442Z,101511.47
2022-12-02T19:55:30.988Z,101509.52
2022-12-02T19:58:03.103Z,101505.40
2022-12-02T20:00:35.629Z,101504.05
2022-12-02T20:03:08.092Z,101503.90
2022-12-02T20:05:40.480Z,101510.22
2022-12-02T20:08:13.059Z,101515.22
2022-12-02T20:10:45.253Z,101518.63
2022-12-02T20:13:18.008Z,101516.05
2022-12-02T20:15:53.532Z,101517.01
2022-12-02T20:18:30.076Z,101515.23
2022-12-02T20:21:02.243Z,101512.82
2022-12-02T20:23:34.956Z,101512.10
2022-12-02T20:26:07.270Z,101513.31
2022-12-02T20:28:39.465Z,101516.65
2022-12-02T20:31:11.607Z,101516.16
2022-12-02T20:33:44.136Z,101515.53
2022-12-02T20:36:16.302Z,101517.86
2022-12-02T20:38:48.880Z,101512.13
2022-12-02T20:41:21.125Z,101513.36
2022-12-02T20:43:53.268Z,101514.13
2022-12-02T20:46:25.592Z,101512.64
2022-12-02T20:48:58.182Z,101511.56
2022-12-02T20:51:30.338Z,101511.48
2022-12-02T20:54:02.490Z,101511.79
2022-12-02T20:56:34.620Z,101510.14
2022-12-02T20:59:06.942Z,101508.45
2022-12-02T21:01:39.168Z,101510.41
2022-12-02T21:04:11.559Z,101513.09
2022-12-02T21:06:43.858Z,101515.02
2022-12-02T21:09:16.421Z,101511.17
2022-12-02T21:11:48.810Z,101509.80
2022-12-02T21:14:21.002Z,101513.80
2022-12-02T21:16:53.918Z,101517.77
2022-12-02T21:19:26.105Z,101517.64
2022-12-02T21:21:58.249Z,101520.17
2022-12-02T21:24:30.335Z,101522.89
2022-12-02T21:27:02.434Z,101522.04
2022-12-02T21:29:34.624Z,101520.34
2022-12-02T21:32:07.430Z,101522.14
2022-12-02T21:34:39.553Z,101526.30
2022-12-02T21:37:11.641Z,101524.57
2022-12-02T21:39:43.758Z,101527.36
2022-12-02T21:42:15.980Z,101526.33
2022-12-02T21:44:48.120Z,101523.67
2022-12-02T21:47:20.316Z,101521.64
2022-12-02T21:49:52.405Z,101521.11
2022-12-02T21:52:25.085Z,101518.85
2022-12-02T21:54:57.330Z,101518.83
2022-12-02T21:57:29.500Z,101519.57
2022-12-02T22:00:01.667Z,101520.62
2022-12-02T22:02:33.934Z,101521.68
2022-12-02T22:05:06.961Z,101517.66
2022-12-02T22:07:42.721Z,101519.77
2022-12-02T22:10:17.459Z,101515.13
2022-12-02T22:12:50.661Z,101510.38
2022-12-02T22:15:23.789Z,101513.05
2022-12-02T22:17:56.270Z,101507.80
2022-12-02T22:20:28.536Z,101507.64
2022-12-02T22:23:00.806Z,101507.19
2022-12-02T22:25:32.872Z,101505.58
2022-12-02T22:28:05.195Z,101504.56
2022-12-02T22:30:37.312Z,101503.08
2022-12-02T22:33:09.559Z,101507.93
2022-12-02T22:35:41.804Z,101507.23
2022-12-02T22:38:14.103Z,101505.60
2022-12-02T22:40:46.319Z,101504.64
2022-12-02T22:43:18.510Z,101509.02
2022-12-02T22:45:50.850Z,101505.05
2022-12-02T22:48:22.975Z,101507.16
2022-12-02T22:50:55.144Z,101502.78
2022-12-02T22:53:27.364Z,101502.63
2022-12-02T22:55:59.482Z,101500.23
2022-12-02T22:58:31.627Z,101497.32
2022-12-02T23:01:04.185Z,101497.60
2022-12-02T23:03:36.342Z,101497.13
2022-12-02T23:06:08.614Z,101497.56
2022-12-02T23:08:40.683Z,101494.52
2022-12-02T23:11:13.001Z,101495.73
2022-12-02T23:13:45.118Z,101493.55
2022-12-02T23:16:17.417Z,101491.66
2022-12-02T23:18:49.635Z,101486.63
2022-12-02T23:21:22.111Z,101486.98
2022-12-02T23:23:54.613Z,101483.42
2022-12-02T23:26:27.072Z,101481.58
2022-12-02T23:28:59.139Z,101481.88
2022-12-02T23:31:31.421Z,101482.34
2022-12-02T23:34:04.027Z,101483.29
2022-12-02T23:36:36.220Z,101485.43
2022-12-02T23:39:08.432Z,101484.64
2022-12-02T23:41:40.838Z,101482.06
2022-12-02T23:44:12.979Z,101480.54
2022-12-02T23:46:45.042Z,101479.77
2022-12-02T23:49:17.117Z,101476.23
2022-12-02T23:51:49.203Z,101475.91
2022-12-02T23:54:21.345Z,101471.12
2022-12-02T23:56:53.413Z,101472.77
2022-12-02T23:59:25.764Z,101470.28
